sensor_id;sensor_type;location;lat;lon;timestamp;pressure;altitude;pressure_sealevel;temperature
68127;BMP180;54931;52.098;21.006;2023-12-20T00:00:07;99437.80;;;5.00
68127;BMP180;54931;52.098;21.006;2023-12-20T00:02:36;99434.00;;;5.00
68127;BMP180;54931;52.098;21.006;2023-12-20T00:05:04;99431.60;;;5.00
68127;BMP180;54931;52.098;21.006;2023-12-20T00:07:36;99428.80;;;5.00
68127;BMP180;54931;52.098;21.006;2023-12-20T00:10:05;99429.40;;;5.06
68127;BMP180;54931;52.098;21.006;2023-12-20T00:12:32;99425.60;;;5.06
68127;BMP180;54931;52.098;21.006;2023-12-20T00:15:00;99419.40;;;5.10
68127;BMP180;54931;52.098;21.006;2023-12-20T00:17:29;99424.20;;;5.10
68127;BMP180;54931;52.098;21.006;2023-12-20T00:19:56;99414.40;;;5.10
68127;BMP180;54931;52.098;21.006;2023-12-20T00:22:24;99415.60;;;5.10
68127;BMP180;54931;52.098;21.006;2023-12-20T00:24:52;99415.00;;;5.10
68127;BMP180;54931;52.098;21.006;2023-12-20T00:27:19;99413.20;;;5.10
68127;BMP180;54931;52.098;21.006;2023-12-20T00:29:47;99415.60;;;5.10
68127;BMP180;54931;52.098;21.006;2023-12-20T00:32:17;99416.20;;;5.10
68127;BMP180;54931;52.098;21.006;2023-12-20T00:34:45;99414.80;;;5.10
68127;BMP180;54931;52.098;21.006;2023-12-20T00:37:13;99412.40;;;5.10
68127;BMP180;54931;52.098;21.006;2023-12-20T00:39:41;99414.80;;;5.10
68127;BMP180;54931;52.098;21.006;2023-12-20T00:42:09;99409.20;;;5.10
68127;BMP180;54931;52.098;21.006;2023-12-20T00:44:37;99413.80;;;5.10
68127;BMP180;54931;52.098;21.006;2023-12-20T00:47:05;99410.20;;;5.10
68127;BMP180;54931;52.098;21.006;2023-12-20T00:49:32;99405.00;;;5.10
68127;BMP180;54931;52.098;21.006;2023-12-20T00:52:00;99402.80;;;5.10
68127;BMP180;54931;52.098;21.006;2023-12-20T00:54:28;99402.20;;;5.10
68127;BMP180;54931;52.098;21.006;2023-12-20T00:56:56;99397.00;;;5.10
68127;BMP180;54931;52.098;21.006;2023-12-20T00:59:23;99390.40;;;5.10
68127;BMP180;54931;52.098;21.006;2023-12-20T01:01:51;99396.20;;;5.10
68127;BMP180;54931;52.098;21.006;2023-12-20T01:04:19;99392.00;;;5.10
68127;BMP180;54931;52.098;21.006;2023-12-20T01:06:47;99384.60;;;5.10
68127;BMP180;54931;52.098;21.006;2023-12-20T01:09:14;99384.00;;;5.10
68127;BMP180;54931;52.098;21.006;2023-12-20T01:11:43;99380.20;;;5.10
68127;BMP180;54931;52.098;21.006;2023-12-20T01:14:10;99380.20;;;5.10
68127;BMP180;54931;52.098;21.006;2023-12-20T01:16:39;99385.60;;;5.10
68127;BMP180;54931;52.098;21.006;2023-12-20T01:19:07;99376.40;;;5.10
68127;BMP180;54931;52.098;21.006;2023-12-20T01:21:34;99377.60;;;5.10
68127;BMP180;54931;52.098;21.006;2023-12-20T01:24:02;99379.40;;;5.10
68127;BMP180;54931;52.098;21.006;2023-12-20T01:26:29;99378.20;;;5.10
68127;BMP180;54931;52.098;21.006;2023-12-20T01:28:57;99381.40;;;5.10
68127;BMP180;54931;52.098;21.006;2023-12-20T01:31:27;99376.20;;;5.10
68127;BMP180;54931;52.098;21.006;2023-12-20T01:33:54;99371.20;;;5.10
68127;BMP180;54931;52.098;21.006;2023-12-20T01:36:22;99373.40;;;5.10
68127;BMP180;54931;52.098;21.006;2023-12-20T01:38:49;99373.60;;;5.10
68127;BMP180;54931;52.098;21.006;2023-12-20T01:41:17;99366.40;;;5.10
68127;BMP180;54931;52.098;21.006;2023-12-20T01:43:45;99367.60;;;5.10
68127;BMP180;54931;52.098;21.006;2023-12-20T01:46:13;99358.40;;;5.08
68127;BMP180;54931;52.098;21.006;2023-12-20T01:48:42;99363.80;;;5.10
68127;BMP180;54931;52.098;21.006;2023-12-20T01:51:11;99360.60;;;5.06
68127;BMP180;54931;52.098;21.006;2023-12-20T01:53:40;99355.60;;;5.06
68127;BMP180;54931;52.098;21.006;2023-12-20T01:56:09;99353.00;;;5.06
68127;BMP180;54931;52.098;21.006;2023-12-20T01:58:44;99354.80;;;5.02
68127;BMP180;54931;52.098;21.006;2023-12-20T02:01:12;99354.00;;;5.04
68127;BMP180;54931;52.098;21.006;2023-12-20T02:03:42;99347.40;;;5.06
68127;BMP180;54931;52.098;21.006;2023-12-20T02:06:10;99345.00;;;5.08
68127;BMP180;54931;52.098;21.006;2023-12-20T02:08:40;99339.40;;;5.04
68127;BMP180;54931;52.098;21.006;2023-12-20T02:11:08;99337.80;;;5.08
68127;BMP180;54931;52.098;21.006;2023-12-20T02:13:35;99335.60;;;5.02
68127;BMP180;54931;52.098;21.006;2023-12-20T02:16:04;99331.20;;;5.00
68127;BMP180;54931;52.098;21.006;2023-12-20T02:18:32;99328.00;;;5.00
68127;BMP180;54931;52.098;21.006;2023-12-20T02:20:59;99325.40;;;5.00
68127;BMP180;54931;52.098;21.006;2023-12-20T02:23:27;99320.60;;;5.00
68127;BMP180;54931;52.098;21.006;2023-12-20T02:25:56;99318.40;;;5.00
68127;BMP180;54931;52.098;21.006;2023-12-20T02:28:27;99313.00;;;5.00
68127;BMP180;54931;52.098;21.006;2023-12-20T02:30:55;99305.40;;;5.00
68127;BMP180;54931;52.098;21.006;2023-12-20T02:33:23;99304.20;;;5.00
68127;BMP180;54931;52.098;21.006;2023-12-20T02:35:52;99305.40;;;5.00
68127;BMP180;54931;52.098;21.006;2023-12-20T02:38:23;99310.60;;;5.00
68127;BMP180;54931;52.098;21.006;2023-12-20T02:40:51;99307.80;;;5.00
68127;BMP180;54931;52.098;21.006;2023-12-20T02:43:18;99297.20;;;5.00
68127;BMP180;54931;52.098;21.006;2023-12-20T02:45:46;99298.20;;;5.00
68127;BMP180;54931;52.098;21.006;2023-12-20T02:48:15;99294.60;;;5.00
68127;BMP180;54931;52.098;21.006;2023-12-20T02:50:47;99297.00;;;5.00
68127;BMP180;54931;52.098;21.006;2023-12-20T02:53:16;99300.40;;;5.00
68127;BMP180;54931;52.098;21.006;2023-12-20T02:55:43;99303.60;;;5.00
68127;BMP180;54931;52.098;21.006;2023-12-20T02:58:11;99296.60;;;5.00
68127;BMP180;54931;52.098;21.006;2023-12-20T03:00:39;99296.00;;;5.00
68127;BMP180;54931;52.098;21.006;2023-12-20T03:03:07;99297.00;;;5.00
68127;BMP180;54931;52.098;21.006;2023-12-20T03:05:35;99295.20;;;5.00
68127;BMP180;54931;52.098;21.006;2023-12-20T03:08:03;99308.20;;;5.00
68127;BMP180;54931;52.098;21.006;2023-12-20T03:10:33;99308.20;;;5.00
68127;BMP180;54931;52.098;21.006;2023-12-20T03:13:02;99303.40;;;5.00
68127;BMP180;54931;52.098;21.006;2023-12-20T03:15:30;99301.20;;;5.00
68127;BMP180;54931;52.098;21.006;2023-12-20T03:17:57;99294.40;;;5.00
68127;BMP180;54931;52.098;21.006;2023-12-20T03:20:27;99289.80;;;5.00
68127;BMP180;54931;52.098;21.006;2023-12-20T03:22:54;99286.80;;;5.00
68127;BMP180;54931;52.098;21.006;2023-12-20T03:25:22;99290.60;;;5.00
68127;BMP180;54931;52.098;21.006;2023-12-20T03:27:50;99297.20;;;5.00
68127;BMP180;54931;52.098;21.006;2023-12-20T03:30:19;99296.20;;;5.00
68127;BMP180;54931;52.098;21.006;2023-12-20T03:32:47;99295.80;;;5.00
68127;BMP180;54931;52.098;21.006;2023-12-20T03:35:15;99289.80;;;5.00
68127;BMP180;54931;52.098;21.006;2023-12-20T03:37:43;99286.20;;;5.00
68127;BMP180;54931;52.098;21.006;2023-12-20T03:40:11;99279.60;;;5.00
68127;BMP180;54931;52.098;21.006;2023-12-20T03:42:38;99282.40;;;5.00
68127;BMP180;54931;52.098;21.006;2023-12-20T03:45:07;99281.20;;;5.00
68127;BMP180;54931;52.098;21.006;2023-12-20T03:47:35;99277.80;;;5.00
68127;BMP180;54931;52.098;21.006;2023-12-20T03:50:04;99273.20;;;5.00
68127;BMP180;54931;52.098;21.006;2023-12-20T03:52:32;99272.60;;;5.00
68127;BMP180;54931;52.098;21.006;2023-12-20T03:55:00;99276.40;;;5.00
68127;BMP180;54931;52.098;21.006;2023-12-20T03:57:28;99284.00;;;5.00
68127;BMP180;54931;52.098;21.006;2023-12-20T03:59:56;99278.60;;;5.00
68127;BMP180;54931;52.098;21.006;2023-12-20T04:02:23;99280.80;;;5.00
68127;BMP180;54931;52.098;21.006;2023-12-20T04:04:51;99282.80;;;4.90
68127;BMP180;54931;52.098;21.006;2023-12-20T04:07:20;99271.00;;;4.90
68127;BMP180;54931;52.098;21.006;2023-12-20T04:09:48;99263.80;;;4.90
68127;BMP180;54931;52.098;21.006;2023-12-20T04:12:16;99278.20;;;4.90
68127;BMP180;54931;52.098;21.006;2023-12-20T04:15:05;99285.20;;;4.90
68127;BMP180;54931;52.098;21.006;2023-12-20T04:17:36;99278.60;;;4.90
68127;BMP180;54931;52.098;21.006;2023-12-20T04:20:05;99269.40;;;4.90
68127;BMP180;54931;52.098;21.006;2023-12-20T04:22:34;99273.00;;;4.90
68127;BMP180;54931;52.098;21.006;2023-12-20T04:25:02;99269.40;;;4.90
68127;BMP180;54931;52.098;21.006;2023-12-20T04:27:29;99277.80;;;4.90
68127;BMP180;54931;52.098;21.006;2023-12-20T04:29:57;99278.00;;;4.90
68127;BMP180;54931;52.098;21.006;2023-12-20T04:32:25;99268.60;;;4.90
68127;BMP180;54931;52.098;21.006;2023-12-20T04:34:53;99269.20;;;4.90
68127;BMP180;54931;52.098;21.006;2023-12-20T04:37:21;99265.40;;;4.90
68127;BMP180;54931;52.098;21.006;2023-12-20T04:39:49;99267.00;;;4.90
68127;BMP180;54931;52.098;21.006;2023-12-20T04:42:17;99272.20;;;4.90
68127;BMP180;54931;52.098;21.006;2023-12-20T04:44:45;99277.60;;;4.90
68127;BMP180;54931;52.098;21.006;2023-12-20T04:47:13;99269.00;;;4.90
68127;BMP180;54931;52.098;21.006;2023-12-20T04:49:41;99263.60;;;4.90
68127;BMP180;54931;52.098;21.006;2023-12-20T04:52:09;99270.40;;;4.90
68127;BMP180;54931;52.098;21.006;2023-12-20T04:54:37;99270.00;;;4.90
68127;BMP180;54931;52.098;21.006;2023-12-20T04:57:04;99267.00;;;4.90
68127;BMP180;54931;52.098;21.006;2023-12-20T04:59:32;99269.40;;;4.90
68127;BMP180;54931;52.098;21.006;2023-12-20T05:02:00;99265.60;;;4.90
68127;BMP180;54931;52.098;21.006;2023-12-20T05:04:28;99259.40;;;4.90
68127;BMP180;54931;52.098;21.006;2023-12-20T05:06:56;99259.20;;;4.90
68127;BMP180;54931;52.098;21.006;2023-12-20T05:09:24;99257.80;;;4.90
68127;BMP180;54931;52.098;21.006;2023-12-20T05:11:52;99257.40;;;4.90
68127;BMP180;54931;52.098;21.006;2023-12-20T05:14:19;99258.20;;;4.90
68127;BMP180;54931;52.098;21.006;2023-12-20T05:16:47;99257.20;;;4.90
68127;BMP180;54931;52.098;21.006;2023-12-20T05:19:15;99259.60;;;4.90
68127;BMP180;54931;52.098;21.006;2023-12-20T05:21:43;99258.20;;;4.90
68127;BMP180;54931;52.098;21.006;2023-12-20T05:24:12;99253.60;;;4.90
68127;BMP180;54931;52.098;21.006;2023-12-20T05:26:40;99253.60;;;4.90
68127;BMP180;54931;52.098;21.006;2023-12-20T05:29:08;99250.20;;;4.90
68127;BMP180;54931;52.098;21.006;2023-12-20T05:31:37;99253.20;;;4.90
68127;BMP180;54931;52.098;21.006;2023-12-20T05:34:05;99245.80;;;4.90
68127;BMP180;54931;52.098;21.006;2023-12-20T05:36:32;99246.40;;;4.90
68127;BMP180;54931;52.098;21.006;2023-12-20T05:39:00;99248.80;;;4.90
68127;BMP180;54931;52.098;21.006;2023-12-20T05:41:28;99252.00;;;4.90
68127;BMP180;54931;52.098;21.006;2023-12-20T05:43:56;99253.00;;;4.88
68127;BMP180;54931;52.098;21.006;2023-12-20T05:46:26;99255.00;;;4.88
68127;BMP180;54931;52.098;21.006;2023-12-20T05:48:55;99252.20;;;4.80
68127;BMP180;54931;52.098;21.006;2023-12-20T05:51:23;99248.80;;;4.80
68127;BMP180;54931;52.098;21.006;2023-12-20T05:53:52;99245.80;;;4.82
68127;BMP180;54931;52.098;21.006;2023-12-20T05:56:19;99250.00;;;4.84
68127;BMP180;54931;52.098;21.006;2023-12-20T05:58:47;99256.60;;;4.82
68127;BMP180;54931;52.098;21.006;2023-12-20T06:01:15;99252.80;;;4.84
68127;BMP180;54931;52.098;21.006;2023-12-20T06:03:46;99248.40;;;4.80
68127;BMP180;54931;52.098;21.006;2023-12-20T06:06:14;99248.00;;;4.80
68127;BMP180;54931;52.098;21.006;2023-12-20T06:08:42;99243.00;;;4.80
68127;BMP180;54931;52.098;21.006;2023-12-20T06:11:12;99238.40;;;4.82
68127;BMP180;54931;52.098;21.006;2023-12-20T06:13:42;99237.20;;;4.80
68127;BMP180;54931;52.098;21.006;2023-12-20T06:16:10;99241.00;;;4.80
68127;BMP180;54931;52.098;21.006;2023-12-20T06:18:38;99241.60;;;4.80
68127;BMP180;54931;52.098;21.006;2023-12-20T06:21:06;99242.60;;;4.80
68127;BMP180;54931;52.098;21.006;2023-12-20T06:23:35;99247.60;;;4.80
68127;BMP180;54931;52.098;21.006;2023-12-20T06:26:04;99251.60;;;4.80
68127;BMP180;54931;52.098;21.006;2023-12-20T06:28:31;99253.20;;;4.80
68127;BMP180;54931;52.098;21.006;2023-12-20T06:30:59;99251.00;;;4.80
68127;BMP180;54931;52.098;21.006;2023-12-20T06:33:28;99249.80;;;4.80
68127;BMP180;54931;52.098;21.006;2023-12-20T06:35:58;99254.40;;;4.80
68127;BMP180;54931;52.098;21.006;2023-12-20T06:38:26;99246.40;;;4.80
68127;BMP180;54931;52.098;21.006;2023-12-20T06:40:54;99247.40;;;4.80
68127;BMP180;54931;52.098;21.006;2023-12-20T06:43:22;99247.00;;;4.80
68127;BMP180;54931;52.098;21.006;2023-12-20T06:45:50;99246.40;;;4.80
68127;BMP180;54931;52.098;21.006;2023-12-20T06:48:18;99246.00;;;4.80
68127;BMP180;54931;52.098;21.006;2023-12-20T06:50:46;99245.20;;;4.80
68127;BMP180;54931;52.098;21.006;2023-12-20T06:53:14;99244.00;;;4.80
68127;BMP180;54931;52.098;21.006;2023-12-20T06:55:42;99247.80;;;4.80
68127;BMP180;54931;52.098;21.006;2023-12-20T06:58:10;99243.60;;;4.80
68127;BMP180;54931;52.098;21.006;2023-12-20T07:00:38;99244.40;;;4.80
68127;BMP180;54931;52.098;21.006;2023-12-20T07:03:06;99241.40;;;4.80
68127;BMP180;54931;52.098;21.006;2023-12-20T07:05:34;99244.40;;;4.80
68127;BMP180;54931;52.098;21.006;2023-12-20T07:08:02;99245.40;;;4.80
68127;BMP180;54931;52.098;21.006;2023-12-20T07:10:30;99241.60;;;4.80
68127;BMP180;54931;52.098;21.006;2023-12-20T07:12:58;99247.60;;;4.80
68127;BMP180;54931;52.098;21.006;2023-12-20T07:15:26;99252.20;;;4.80
68127;BMP180;54931;52.098;21.006;2023-12-20T07:17:54;99247.60;;;4.80
68127;BMP180;54931;52.098;21.006;2023-12-20T07:20:22;99246.80;;;4.80
68127;BMP180;54931;52.098;21.006;2023-12-20T07:22:50;99247.40;;;4.84
68127;BMP180;54931;52.098;21.006;2023-12-20T07:25:18;99248.00;;;4.88
68127;BMP180;54931;52.098;21.006;2023-12-20T07:27:47;99254.20;;;4.90
68127;BMP180;54931;52.098;21.006;2023-12-20T07:30:16;99254.80;;;4.90
68127;BMP180;54931;52.098;21.006;2023-12-20T07:32:44;99253.40;;;4.90
68127;BMP180;54931;52.098;21.006;2023-12-20T07:35:12;99247.60;;;4.90
68127;BMP180;54931;52.098;21.006;2023-12-20T07:37:40;99244.40;;;4.90
68127;BMP180;54931;52.098;21.006;2023-12-20T07:40:09;99250.00;;;4.90
68127;BMP180;54931;52.098;21.006;2023-12-20T07:42:37;99247.40;;;4.90
68127;BMP180;54931;52.098;21.006;2023-12-20T07:45:06;99257.20;;;4.90
68127;BMP180;54931;52.098;21.006;2023-12-20T07:47:34;99253.80;;;4.90
68127;BMP180;54931;52.098;21.006;2023-12-20T07:50:03;99255.20;;;4.90
68127;BMP180;54931;52.098;21.006;2023-12-20T07:52:31;99257.00;;;4.90
68127;BMP180;54931;52.098;21.006;2023-12-20T07:54:59;99256.80;;;4.92
68127;BMP180;54931;52.098;21.006;2023-12-20T07:57:30;99260.60;;;4.90
68127;BMP180;54931;52.098;21.006;2023-12-20T07:59:59;99255.40;;;4.90
68127;BMP180;54931;52.098;21.006;2023-12-20T08:02:27;99259.40;;;4.96
68127;BMP180;54931;52.098;21.006;2023-12-20T08:04:55;99258.40;;;4.98
68127;BMP180;54931;52.098;21.006;2023-12-20T08:07:23;99257.60;;;5.00
68127;BMP180;54931;52.098;21.006;2023-12-20T08:09:52;99252.00;;;4.98
68127;BMP180;54931;52.098;21.006;2023-12-20T08:12:20;99255.20;;;4.94
68127;BMP180;54931;52.098;21.006;2023-12-20T08:14:48;99253.20;;;4.96
68127;BMP180;54931;52.098;21.006;2023-12-20T08:17:16;99248.80;;;4.94
68127;BMP180;54931;52.098;21.006;2023-12-20T08:19:46;99248.60;;;4.94
68127;BMP180;54931;52.098;21.006;2023-12-20T08:22:14;99252.40;;;4.92
68127;BMP180;54931;52.098;21.006;2023-12-20T08:24:42;99250.20;;;4.90
68127;BMP180;54931;52.098;21.006;2023-12-20T08:27:10;99247.20;;;4.92
68127;BMP180;54931;52.098;21.006;2023-12-20T08:29:38;99254.20;;;4.96
68127;BMP180;54931;52.098;21.006;2023-12-20T08:32:06;99252.60;;;4.90
68127;BMP180;54931;52.098;21.006;2023-12-20T08:34:33;99253.40;;;4.96
68127;BMP180;54931;52.098;21.006;2023-12-20T08:37:02;99251.20;;;4.98
68127;BMP180;54931;52.098;21.006;2023-12-20T08:39:30;99253.00;;;4.98
68127;BMP180;54931;52.098;21.006;2023-12-20T08:42:01;99253.20;;;4.98
68127;BMP180;54931;52.098;21.006;2023-12-20T08:44:29;99259.60;;;4.98
68127;BMP180;54931;52.098;21.006;2023-12-20T08:46:57;99256.80;;;4.98
68127;BMP180;54931;52.098;21.006;2023-12-20T08:49:25;99257.20;;;5.00
68127;BMP180;54931;52.098;21.006;2023-12-20T08:51:54;99259.60;;;5.00
68127;BMP180;54931;52.098;21.006;2023-12-20T08:54:22;99254.20;;;5.00
68127;BMP180;54931;52.098;21.006;2023-12-20T08:56:50;99250.60;;;5.00
68127;BMP180;54931;52.098;21.006;2023-12-20T08:59:18;99247.40;;;5.00
68127;BMP180;54931;52.098;21.006;2023-12-20T09:01:46;99249.40;;;5.00
68127;BMP180;54931;52.098;21.006;2023-12-20T09:04:16;99243.40;;;5.08
68127;BMP180;54931;52.098;21.006;2023-12-20T09:06:44;99244.20;;;5.10
68127;BMP180;54931;52.098;21.006;2023-12-20T09:09:12;99239.00;;;5.10
68127;BMP180;54931;52.098;21.006;2023-12-20T09:11:42;99235.60;;;5.10
68127;BMP180;54931;52.098;21.006;2023-12-20T09:14:10;99236.20;;;5.14
68127;BMP180;54931;52.098;21.006;2023-12-20T09:16:39;99230.20;;;5.20
68127;BMP180;54931;52.098;21.006;2023-12-20T09:19:07;99232.80;;;5.20
68127;BMP180;54931;52.098;21.006;2023-12-20T09:21:35;99228.80;;;5.20
68127;BMP180;54931;52.098;21.006;2023-12-20T09:24:04;99224.40;;;5.20
68127;BMP180;54931;52.098;21.006;2023-12-20T09:26:35;99219.80;;;5.20
68127;BMP180;54931;52.098;21.006;2023-12-20T09:29:06;99216.00;;;5.20
68127;BMP180;54931;52.098;21.006;2023-12-20T09:31:36;99214.60;;;5.20
68127;BMP180;54931;52.098;21.006;2023-12-20T09:34:04;99208.40;;;5.20
68127;BMP180;54931;52.098;21.006;2023-12-20T09:36:33;99208.20;;;5.20
68127;BMP180;54931;52.098;21.006;2023-12-20T09:39:03;99202.20;;;5.20
68127;BMP180;54931;52.098;21.006;2023-12-20T09:41:37;99203.20;;;5.20
68127;BMP180;54931;52.098;21.006;2023-12-20T09:44:15;99199.20;;;5.26
68127;BMP180;54931;52.098;21.006;2023-12-20T09:46:50;99195.60;;;5.28
68127;BMP180;54931;52.098;21.006;2023-12-20T09:49:21;99196.80;;;5.30
68127;BMP180;54931;52.098;21.006;2023-12-20T09:51:51;99196.20;;;5.30
68127;BMP180;54931;52.098;21.006;2023-12-20T09:54:21;99193.20;;;5.30
68127;BMP180;54931;52.098;21.006;2023-12-20T09:56:50;99191.80;;;5.28
68127;BMP180;54931;52.098;21.006;2023-12-20T09:59:18;99186.00;;;5.22
68127;BMP180;54931;52.098;21.006;2023-12-20T10:01:46;99185.20;;;5.20
68127;BMP180;54931;52.098;21.006;2023-12-20T10:04:15;99181.40;;;5.20
68127;BMP180;54931;52.098;21.006;2023-12-20T10:06:45;99182.40;;;5.20
68127;BMP180;54931;52.098;21.006;2023-12-20T10:09:16;99183.40;;;5.20
68127;BMP180;54931;52.098;21.006;2023-12-20T10:11:44;99185.40;;;5.20
68127;BMP180;54931;52.098;21.006;2023-12-20T10:14:12;99180.40;;;5.20
68127;BMP180;54931;52.098;21.006;2023-12-20T10:16:42;99187.60;;;5.20
68127;BMP180;54931;52.098;21.006;2023-12-20T10:19:10;99189.20;;;5.20
68127;BMP180;54931;52.098;21.006;2023-12-20T10:21:38;99183.40;;;5.20
68127;BMP180;54931;52.098;21.006;2023-12-20T10:24:06;99184.20;;;5.22
68127;BMP180;54931;52.098;21.006;2023-12-20T10:26:34;99186.60;;;5.22
68127;BMP180;54931;52.098;21.006;2023-12-20T10:29:05;99182.40;;;5.22
68127;BMP180;54931;52.098;21.006;2023-12-20T10:31:34;99180.60;;;5.26
68127;BMP180;54931;52.098;21.006;2023-12-20T10:34:04;99178.00;;;5.24
68127;BMP180;54931;52.098;21.006;2023-12-20T10:36:33;99172.20;;;5.20
68127;BMP180;54931;52.098;21.006;2023-12-20T10:39:02;99170.20;;;5.22
68127;BMP180;54931;52.098;21.006;2023-12-20T10:41:33;99167.80;;;5.20
68127;BMP180;54931;52.098;21.006;2023-12-20T10:44:04;99165.20;;;5.20
68127;BMP180;54931;52.098;21.006;2023-12-20T10:46:34;99163.80;;;5.20
68127;BMP180;54931;52.098;21.006;2023-12-20T10:49:05;99166.00;;;5.20
68127;BMP180;54931;52.098;21.006;2023-12-20T10:51:34;99164.60;;;5.20
68127;BMP180;54931;52.098;21.006;2023-12-20T10:54:02;99160.00;;;5.20
68127;BMP180;54931;52.098;21.006;2023-12-20T10:56:32;99158.20;;;5.20
68127;BMP180;54931;52.098;21.006;2023-12-20T10:59:04;99153.80;;;5.20
68127;BMP180;54931;52.098;21.006;2023-12-20T11:01:35;99152.40;;;5.20
68127;BMP180;54931;52.098;21.006;2023-12-20T11:04:08;99147.60;;;5.20
68127;BMP180;54931;52.098;21.006;2023-12-20T11:06:49;99152.00;;;5.20
68127;BMP180;54931;52.098;21.006;2023-12-20T11:09:29;99147.20;;;5.20
68127;BMP180;54931;52.098;21.006;2023-12-20T11:14:47;99142.60;;;5.20
68127;BMP180;54931;52.098;21.006;2023-12-20T11:17:17;99138.20;;;5.20
68127;BMP180;54931;52.098;21.006;2023-12-20T11:22:31;99130.40;;;5.20
68127;BMP180;54931;52.098;21.006;2023-12-20T11:25:09;99126.40;;;5.20
68127;BMP180;54931;52.098;21.006;2023-12-20T11:27:41;99120.60;;;5.20
68127;BMP180;54931;52.098;21.006;2023-12-20T11:30:14;99116.00;;;5.20
68127;BMP180;54931;52.098;21.006;2023-12-20T11:32:45;99120.80;;;5.20
68127;BMP180;54931;52.098;21.006;2023-12-20T11:37:42;99109.80;;;5.20
68127;BMP180;54931;52.098;21.006;2023-12-20T11:40:18;99108.40;;;5.20
68127;BMP180;54931;52.098;21.006;2023-12-20T11:42:50;99100.60;;;5.20
68127;BMP180;54931;52.098;21.006;2023-12-20T11:45:21;99100.20;;;5.20
68127;BMP180;54931;52.098;21.006;2023-12-20T11:47:51;99101.20;;;5.20
68127;BMP180;54931;52.098;21.006;2023-12-20T11:50:20;99102.80;;;5.20
68127;BMP180;54931;52.098;21.006;2023-12-20T11:52:52;99101.00;;;5.20
68127;BMP180;54931;52.098;21.006;2023-12-20T11:55:24;99098.00;;;5.28
68127;BMP180;54931;52.098;21.006;2023-12-20T11:57:53;99094.20;;;5.28
68127;BMP180;54931;52.098;21.006;2023-12-20T12:00:22;99088.80;;;5.30
68127;BMP180;54931;52.098;21.006;2023-12-20T12:02:58;99089.60;;;5.30
68127;BMP180;54931;52.098;21.006;2023-12-20T12:05:31;99092.20;;;5.30
68127;BMP180;54931;52.098;21.006;2023-12-20T12:08:00;99086.40;;;5.26
68127;BMP180;54931;52.098;21.006;2023-12-20T12:10:29;99089.80;;;5.20
68127;BMP180;54931;52.098;21.006;2023-12-20T12:12:57;99083.80;;;5.20
68127;BMP180;54931;52.098;21.006;2023-12-20T12:15:26;99085.20;;;5.20
68127;BMP180;54931;52.098;21.006;2023-12-20T12:17:55;99086.60;;;5.10
68127;BMP180;54931;52.098;21.006;2023-12-20T12:20:28;99085.00;;;5.10
68127;BMP180;54931;52.098;21.006;2023-12-20T12:23:04;99086.80;;;5.04
68127;BMP180;54931;52.098;21.006;2023-12-20T12:25:35;99076.80;;;5.00
68127;BMP180;54931;52.098;21.006;2023-12-20T12:28:05;99071.40;;;4.98
68127;BMP180;54931;52.098;21.006;2023-12-20T12:30:33;99075.60;;;4.90
68127;BMP180;54931;52.098;21.006;2023-12-20T12:33:03;99072.80;;;4.90
68127;BMP180;54931;52.098;21.006;2023-12-20T12:35:31;99072.20;;;4.90
68127;BMP180;54931;52.098;21.006;2023-12-20T12:37:59;99068.80;;;4.88
68127;BMP180;54931;52.098;21.006;2023-12-20T12:40:28;99067.60;;;4.82
68127;BMP180;54931;52.098;21.006;2023-12-20T12:42:56;99060.40;;;4.80
68127;BMP180;54931;52.098;21.006;2023-12-20T12:45:25;99057.60;;;4.80
68127;BMP180;54931;52.098;21.006;2023-12-20T12:47:54;99058.60;;;4.70
68127;BMP180;54931;52.098;21.006;2023-12-20T12:50:22;99051.40;;;4.70
68127;BMP180;54931;52.098;21.006;2023-12-20T12:52:51;99054.60;;;4.70
68127;BMP180;54931;52.098;21.006;2023-12-20T12:55:19;99051.80;;;4.64
68127;BMP180;54931;52.098;21.006;2023-12-20T12:57:47;99052.80;;;4.60
68127;BMP180;54931;52.098;21.006;2023-12-20T13:00:15;99055.40;;;4.60
68127;BMP180;54931;52.098;21.006;2023-12-20T13:02:43;99055.20;;;4.60
68127;BMP180;54931;52.098;21.006;2023-12-20T13:05:11;99054.00;;;4.60
68127;BMP180;54931;52.098;21.006;2023-12-20T13:07:39;99046.40;;;4.60
68127;BMP180;54931;52.098;21.006;2023-12-20T13:10:08;99057.20;;;4.60
68127;BMP180;54931;52.098;21.006;2023-12-20T13:12:36;99055.40;;;4.60
68127;BMP180;54931;52.098;21.006;2023-12-20T13:15:04;99054.60;;;4.60
68127;BMP180;54931;52.098;21.006;2023-12-20T13:17:32;99048.20;;;4.58
68127;BMP180;54931;52.098;21.006;2023-12-20T13:20:01;99054.00;;;4.50
68127;BMP180;54931;52.098;21.006;2023-12-20T13:22:29;99055.80;;;4.50
68127;BMP180;54931;52.098;21.006;2023-12-20T13:24:57;99054.00;;;4.50
68127;BMP180;54931;52.098;21.006;2023-12-20T13:27:25;99053.40;;;4.50
68127;BMP180;54931;52.098;21.006;2023-12-20T13:29:53;99049.80;;;4.50
68127;BMP180;54931;52.098;21.006;2023-12-20T13:32:21;99051.60;;;4.50
68127;BMP180;54931;52.098;21.006;2023-12-20T13:34:49;99043.00;;;4.50
68127;BMP180;54931;52.098;21.006;2023-12-20T13:37:18;99046.80;;;4.54
68127;BMP180;54931;52.098;21.006;2023-12-20T13:39:46;99042.40;;;4.50
68127;BMP180;54931;52.098;21.006;2023-12-20T13:42:14;99043.80;;;4.50
68127;BMP180;54931;52.098;21.006;2023-12-20T13:44:42;99056.80;;;4.52
68127;BMP180;54931;52.098;21.006;2023-12-20T13:47:11;99049.60;;;4.52
68127;BMP180;54931;52.098;21.006;2023-12-20T13:49:39;99047.20;;;4.56
68127;BMP180;54931;52.098;21.006;2023-12-20T13:52:07;99048.80;;;4.60
68127;BMP180;54931;52.098;21.006;2023-12-20T13:54:35;99048.20;;;4.60
68127;BMP180;54931;52.098;21.006;2023-12-20T13:57:04;99031.60;;;4.52
68127;BMP180;54931;52.098;21.006;2023-12-20T13:59:32;99033.80;;;4.50
68127;BMP180;54931;52.098;21.006;2023-12-20T14:02:00;99034.60;;;4.50
68127;BMP180;54931;52.098;21.006;2023-12-20T14:04:31;99038.20;;;4.40
68127;BMP180;54931;52.098;21.006;2023-12-20T14:06:59;99038.00;;;4.40
68127;BMP180;54931;52.098;21.006;2023-12-20T14:09:27;99023.40;;;4.36
68127;BMP180;54931;52.098;21.006;2023-12-20T14:11:55;99030.40;;;4.30
68127;BMP180;54931;52.098;21.006;2023-12-20T14:14:23;99025.20;;;4.30
68127;BMP180;54931;52.098;21.006;2023-12-20T14:16:51;99035.20;;;4.30
68127;BMP180;54931;52.098;21.006;2023-12-20T14:19:19;99036.00;;;4.30
68127;BMP180;54931;52.098;21.006;2023-12-20T14:21:48;99036.20;;;4.30
68127;BMP180;54931;52.098;21.006;2023-12-20T14:24:16;99043.80;;;4.30